Benge, WA

7:46 AM PDT on August 01, 2014 (GMT -0700)
Walla Walla Regional (KALW) Elev 1204 ft | 46.09 °N, 118.29 °W | Change Station
Active Advisory: Fire Weather Watch

Current weather conditions updated 53 minutes ago

Clear
Clear
77 °F
Feels Like 77 °F
N
7
Wind Variable Wind from SE

Today is forecast to be Much Warmer than yesterday.

Today
High -- | Low -- °F
--% Chance of Precip.
Yesterday
High -- | Low -- °F
Precip. -- in
5:31 AM 8:23 PM
Waxing Crescent, 27% visible
Pressure 29.94 in
Visibility 10.0 miles
Clouds Clear
Dew Point 47 °F
Humidity 34%
Rainfall 0.00 in
Snow Depth Not available.
UV 1 out of 12
Pollen 6.50 out of 12
Air Quality Not available.
Flu Activity Not available.
METAR KALW 011353Z 13006KT 10SM CLR 25/08 A2997 RMK AO2 SLP138 T02500083

More Conditions Fewer Conditions

Pressure 29.94 in
Visibility 10.0 miles
Clouds Clear
Dew Point 47 °F
Humidity 34%
Rainfall 0.00 in
Snow Depth Not available.
UV 1 out of 12
Pollen 6.50 out of 12
Air Quality Not available.
Flu Activity Not available.
METAR KALW 011353Z 13006KT 10SM CLR 25/08 A2997 RMK AO2 SLP138 T02500083

More Conditions Fewer Conditions

10-Day Weather Forecast

Almanac

Astronomy

Aug. 01, 2014 Rise Set
Actual Time 5:31 AM PDT 8:23 PM PDT
Civil Twilight 4:56 AM PDT 8:59 PM PDT
Nautical Twilight 4:11 AM PDT 9:44 PM PDT
Astronomical Twilight 3:17 AM PDT 10:37 PM PDT
Moon 11:24 AM PDT 10:45 PM PDT
Length of Visible Light 16h 02m
Length of Day
14h 52m
Tomorrow will be 2m 37s shorter.
Waxing Crescent, 27% of the Moon is Illuminated
Today
Waxing Crescent
Aug 3
First Quarter
Aug 10
Full
Aug 17
Last Quarter
Aug 25
New

Today's Extremes

State Highs State Lows

Community

WunderPhotos

Upload Photos

1,739,599 photos uploaded!

Nearby

Snow Depth

Station Depth Elevation
Spruce Springs 0 in 5700 ft
Quartz Peak 1 in 4700 ft
Trough 0 in 5300 ft
Moses Mountain 1 in 5300 ft
Grouse Camp 0 in 5380 ft

Earthquake Activity

City Distance Mag. Time & Date
No recent earthquake activity has been reported nearby.
Minimum magnitude displayed is 2.5.

Coastal Water Temperatures

Place Temperature
No Stations Reporting

Nearby Weather Stations

Station Location Temp. Heat Index Dew Point Humidity Wind Precip. Elev Updated Type
Winona-Silk Stocking Road, Endicott, WA 74.8 °F 77 °F 45 °F 35% WNW  at  0.0 mph 0.00 in / hr 1483 ft 7:46 AM PDT Rapid Fire
RAWS ESCURE WA, Benge, WA 70 °F - 39 °F 32% NNE  at  4 mph 0.00 in / hr 1740 ft 6:41 AM PDT MADIS
MesoWest HOOPER , Hooper, WA 68 °F - - - North  at  - 0.00 in / hr 1032 ft 4:30 AM PDT MADIS
MesoWest TESKE , Ritzville, WA 75 °F 73 °F - - North  at  - 0.00 in / hr 1759 ft 6:50 AM PDT MADIS
Central Ferry, Pomeroy, WA 75.8 °F 78 °F 52 °F 44% South  at  5.0 mph 0.00 in / hr 671 ft 7:40 AM PDT Normal
MesoWest Lake Bryan - Rice Bar , Hay, WA 70 °F - 50 °F 49% SE  at  1 mph 0.00 in / hr 629 ft 6:15 AM PDT MADIS
Onecho, WA 77.8 °F 78 °F 48 °F 35% East  at  7.0 mph 0.00 in / hr 1749 ft 7:42 AM PDT Normal

Show More Stations Show Fewer Stations